ASN logo
ASN Wikibase Occurrence # 177756
Last updated: 14 April 2020
This information is added by users of ASN. Neither ASN nor the Flight Safety Foundation are responsible for the completeness or correctness of this information. If you feel this information is incomplete or incorrect, you can submit corrected information.

Date:13-JUL-2015
Time:00:19
Type:Silhouette image of generic B737 model; specific model in this crash may look slightly different
Boeing 737-7H4 (WL)
Owner/operator:Southwest Airlines
Registration:
C/n / msn:
Fatalities:Fatalities: 0 / Occupants:
Other fatalities:0
Aircraft damage: Unknown
Location:Richmond International Airport, VA (RIC/KRIC) -   United States of America
Phase: Landing
Nature:Domestic Scheduled Passenger
Departure airport:Orlando International Airport, FL (MCO/KMCO)
Destination airport:Richmond International Airport, VA (RIC/KRIC)
Narrative:
A Southwest Airlines Boeing 737-700, flight WN4636 from Orlando, Florida, suffered a taxiway excursion after landing on runway 20 at Richmond International Airport, VA (RIC).

Weather reported at RIC (incident time was about 04:19Z):
KRIC 130454Z 12003KT 10SM OVC170 22/19 A2997 RMK AO2 SLP153 T02170189 402940194
KRIC 130354Z 00000KT 10SM BKN210 22/19 A2998 RMK AO2 SLP156 T02220189
KRIC 130254Z 00000KT 10SM OVC220 23/19 A2999 RMK AO2 SLP159 T02330189 53005

Sources:







Revision history:

Date/timeContributorUpdates
13-Jul-2015 09:29 harro Added
13-Jul-2015 09:33 harro Updated [Phase, Nature, Departure airport, Destination airport, Source]
13-Jul-2015 09:37 harro Updated [Time, Aircraft type, Location, Departure airport, Destination airport, Narrative]
13-Jul-2015 09:45 harro Updated [Aircraft type, Narrative]
13-Jul-2015 09:56 harro Updated [Narrative]
13-Jul-2015 10:06 harro Updated [Narrative]

Corrections or additions? ... Edit this accident description